createdAt,value
2018-07-31T00:02:18.321Z,32.50
2018-07-31T00:04:49.779Z,32.48
2018-07-31T00:07:21.437Z,32.47
2018-07-31T00:09:56.232Z,32.33
2018-07-31T00:12:29.673Z,32.40
2018-07-31T00:15:24.500Z,32.60
2018-07-31T00:18:02.045Z,32.63
2018-07-31T00:20:36.145Z,32.72
2018-07-31T00:23:45.333Z,31.97
2018-07-31T00:26:22.067Z,32.49
2018-07-31T00:28:53.770Z,32.64
2018-07-31T00:31:26.958Z,32.75
2018-07-31T00:34:00.664Z,32.49
2018-07-31T00:36:33.106Z,32.56
2018-07-31T00:39:06.834Z,32.52
2018-07-31T00:41:41.663Z,32.47
2018-07-31T00:44:14.907Z,32.57
2018-07-31T00:46:46.291Z,32.55
2018-07-31T00:49:18.644Z,32.44
2018-07-31T00:51:52.485Z,32.37
2018-07-31T00:54:25.778Z,32.34
2018-07-31T00:56:57.546Z,32.30
2018-07-31T00:59:29.189Z,32.23
2018-07-31T01:02:01.292Z,32.14
2018-07-31T01:04:32.941Z,32.03
2018-07-31T01:07:05.618Z,31.95
2018-07-31T01:09:37.459Z,31.84
2018-07-31T01:12:10.901Z,31.87
2018-07-31T01:14:42.527Z,31.90
2018-07-31T01:17:15.143Z,31.69
2018-07-31T01:19:48.384Z,31.83
2018-07-31T01:22:22.655Z,31.77
2018-07-31T01:24:55.434Z,31.70
2018-07-31T01:27:28.920Z,31.66
2018-07-31T01:30:01.198Z,31.64
2018-07-31T01:32:35.526Z,31.61
2018-07-31T01:35:19.404Z,31.68
2018-07-31T01:37:51.752Z,31.50
2018-07-31T01:40:25.565Z,31.59
2018-07-31T01:42:57.402Z,31.73
2018-07-31T01:45:28.986Z,31.66
2018-07-31T01:48:00.531Z,31.35
2018-07-31T01:50:32.637Z,31.41
2018-07-31T01:53:07.197Z,31.41
2018-07-31T01:55:39.465Z,31.31
2018-07-31T01:58:11.863Z,31.23
2018-07-31T02:00:44.008Z,31.09
2018-07-31T02:03:15.640Z,31.27
2018-07-31T02:05:47.570Z,31.16
2018-07-31T02:08:19.314Z,31.13
2018-07-31T02:10:51.311Z,31.16
2018-07-31T02:13:24.259Z,31.12
2018-07-31T02:15:56.393Z,31.08
2018-07-31T02:18:28.762Z,31.08
2018-07-31T02:21:04.242Z,31.06
2018-07-31T02:23:38.880Z,31.03
2018-07-31T02:26:13.848Z,30.98
2018-07-31T02:28:45.856Z,30.90
2018-07-31T02:31:25.933Z,30.83
2018-07-31T02:33:58.676Z,30.78
2018-07-31T02:36:33.327Z,30.81
2018-07-31T02:39:09.683Z,30.84
2018-07-31T02:41:42.721Z,30.86
2018-07-31T02:44:24.385Z,30.86
2018-07-31T02:46:57.581Z,30.82
2018-07-31T02:49:29.923Z,30.74
2018-07-31T02:52:03.485Z,30.62
2018-07-31T02:55:01.151Z,30.49
2018-07-31T02:57:33.107Z,30.43
2018-07-31T03:00:07.393Z,30.45
2018-07-31T03:02:39.425Z,30.46
2018-07-31T03:05:12.368Z,30.36
2018-07-31T03:07:46.424Z,30.31
2018-07-31T03:10:20.937Z,30.22
2018-07-31T03:12:53.987Z,30.12
2018-07-31T03:15:28.386Z,29.99
2018-07-31T03:18:00.539Z,29.94
2018-07-31T03:20:34.002Z,30.06
2018-07-31T03:23:06.557Z,30.09
2018-07-31T03:25:38.230Z,30.09
2018-07-31T03:28:11.051Z,30.04
2018-07-31T03:30:42.596Z,30.05
2018-07-31T03:33:14.658Z,29.94
2018-07-31T03:35:47.690Z,30.29
2018-07-31T03:38:19.309Z,30.42
2018-07-31T03:40:49.995Z,30.42
2018-07-31T03:43:21.816Z,30.32
2018-07-31T03:45:53.402Z,30.39
2018-07-31T03:48:24.048Z,30.23
2018-07-31T03:50:56.584Z,30.11
2018-07-31T03:53:27.350Z,30.03
2018-07-31T03:56:05.584Z,30.16
2018-07-31T03:58:39.254Z,30.42
2018-07-31T04:01:13.328Z,30.41
2018-07-31T04:03:46.643Z,30.44
2018-07-31T04:06:18.407Z,30.47
2018-07-31T04:08:54.526Z,30.42
2018-07-31T04:11:26.258Z,30.45
2018-07-31T04:13:58.639Z,30.46
2018-07-31T04:16:31.142Z,30.43
2018-07-31T04:19:03.264Z,30.51
2018-07-31T04:21:35.785Z,30.83
2018-07-31T04:24:08.446Z,31.12
2018-07-31T04:26:40.636Z,31.33
2018-07-31T04:29:13.026Z,31.72
2018-07-31T04:31:46.081Z,32.12
2018-07-31T04:34:20.810Z,32.41
2018-07-31T04:36:54.229Z,32.69
2018-07-31T04:39:26.617Z,32.90
2018-07-31T04:41:58.645Z,33.25
2018-07-31T04:44:30.810Z,33.65
2018-07-31T04:47:04.079Z,33.81
2018-07-31T04:49:41.268Z,34.02
2018-07-31T04:52:12.976Z,34.11
2018-07-31T04:54:46.513Z,34.21
2018-07-31T04:57:21.456Z,34.24
2018-07-31T04:59:53.112Z,34.50
2018-07-31T05:02:25.896Z,34.68
2018-07-31T05:04:59.131Z,34.73
2018-07-31T05:07:31.706Z,34.98
2018-07-31T05:10:02.570Z,35.23
2018-07-31T05:12:33.857Z,35.37
2018-07-31T05:15:07.210Z,35.48
2018-07-31T05:17:40.323Z,35.65
2018-07-31T05:20:13.666Z,35.59
2018-07-31T05:22:46.957Z,35.69
2018-07-31T05:25:20.533Z,35.77
2018-07-31T05:27:57.489Z,35.83
2018-07-31T05:30:33.303Z,36.17
2018-07-31T05:33:06.571Z,36.36
2018-07-31T05:35:38.679Z,36.64
2018-07-31T05:38:09.406Z,36.79
2018-07-31T05:40:43.058Z,36.94
2018-07-31T05:43:14.664Z,37.08
2018-07-31T05:45:56.649Z,37.35
2018-07-31T05:48:31.644Z,37.61
2018-07-31T05:51:07.232Z,37.83
2018-07-31T05:53:41.099Z,38.16
2018-07-31T05:56:13.177Z,38.56
2018-07-31T05:58:44.612Z,38.83
2018-07-31T06:01:17.384Z,39.18
2018-07-31T06:03:49.266Z,39.21
2018-07-31T06:06:23.066Z,39.24
2018-07-31T06:08:57.243Z,39.25
2018-07-31T06:11:30.198Z,39.33
2018-07-31T06:14:02.950Z,39.58
2018-07-31T06:16:38.974Z,40.05
2018-07-31T06:19:11.388Z,40.51
2018-07-31T06:21:44.886Z,40.84
2018-07-31T06:24:18.501Z,40.88
2018-07-31T06:26:50.237Z,41.48
2018-07-31T06:29:23.645Z,41.88
2018-07-31T06:31:54.425Z,41.96
2018-07-31T06:34:30.429Z,42.08
2018-07-31T06:37:09.030Z,42.51
2018-07-31T06:39:43.926Z,42.68
2018-07-31T06:42:18.193Z,42.74
2018-07-31T06:44:53.410Z,42.79
2018-07-31T06:47:26.969Z,42.94
2018-07-31T06:49:58.712Z,42.67
2018-07-31T06:52:31.321Z,42.63
2018-07-31T06:55:03.558Z,42.76
2018-07-31T06:57:36.756Z,42.60
2018-07-31T07:00:10.365Z,42.72
2018-07-31T07:03:00.322Z,42.96
2018-07-31T07:05:37.385Z,42.84
2018-07-31T07:08:10.538Z,43.17
2018-07-31T07:10:42.136Z,43.35
2018-07-31T07:13:14.414Z,43.54
2018-07-31T07:15:48.715Z,43.64
2018-07-31T07:18:22.244Z,43.86
2018-07-31T07:20:55.447Z,43.80
2018-07-31T07:23:29.658Z,44.08
2018-07-31T07:26:01.710Z,44.20
2018-07-31T07:28:33.454Z,44.15
2018-07-31T07:31:05.992Z,44.52
2018-07-31T07:33:40.578Z,44.70
2018-07-31T07:36:15.299Z,45.01
2018-07-31T07:38:50.125Z,44.64
2018-07-31T07:41:23.289Z,44.54
2018-07-31T07:43:56.829Z,44.86
2018-07-31T07:46:29.416Z,45.19
2018-07-31T07:49:03.554Z,45.18
2018-07-31T07:51:36.499Z,45.33
2018-07-31T07:54:13.783Z,45.21
2018-07-31T07:56:48.491Z,45.66
2018-07-31T07:59:22.706Z,45.60
2018-07-31T08:01:57.086Z,45.94
2018-07-31T08:04:32.612Z,46.01
2018-07-31T08:07:09.878Z,46.00
2018-07-31T08:09:46.234Z,46.06
2018-07-31T08:12:20.621Z,45.90
2018-07-31T08:14:56.066Z,45.73
2018-07-31T08:17:33.448Z,46.11
2018-07-31T08:20:07.944Z,45.95
2018-07-31T08:22:46.476Z,46.28
2018-07-31T08:28:00.106Z,46.25
2018-07-31T08:30:44.662Z,45.96
2018-07-31T08:33:25.543Z,46.31
2018-07-31T08:36:00.919Z,46.45
2018-07-31T08:38:34.543Z,46.64
2018-07-31T08:41:08.273Z,46.50
2018-07-31T08:43:41.763Z,46.43
2018-07-31T08:46:21.879Z,46.30
2018-07-31T08:48:54.651Z,46.25
2018-07-31T08:51:42.491Z,45.87
2018-07-31T08:54:16.442Z,45.76
2018-07-31T08:56:52.132Z,46.18
2018-07-31T08:59:27.505Z,46.50
2018-07-31T09:02:00.100Z,46.63
2018-07-31T09:04:39.355Z,46.47
2018-07-31T09:07:16.052Z,46.02
2018-07-31T09:09:48.583Z,46.24
2018-07-31T09:12:23.925Z,46.47
2018-07-31T09:14:57.128Z,46.28
2018-07-31T09:17:32.115Z,46.28
2018-07-31T09:20:06.707Z,46.37
2018-07-31T09:22:39.489Z,46.35
2018-07-31T09:25:25.681Z,46.34
2018-07-31T09:28:00.759Z,46.20
2018-07-31T09:30:34.092Z,45.93
2018-07-31T09:33:08.475Z,46.08
2018-07-31T09:35:40.764Z,46.05
2018-07-31T09:38:13.733Z,46.25
2018-07-31T09:40:46.994Z,46.49
2018-07-31T09:43:20.014Z,46.38
2018-07-31T09:45:53.714Z,46.67
2018-07-31T09:48:26.931Z,46.57
2018-07-31T09:51:00.100Z,46.60
2018-07-31T09:53:33.200Z,46.54
2018-07-31T09:56:06.810Z,46.49
2018-07-31T09:58:39.513Z,47.13
2018-07-31T10:01:19.069Z,47.29
2018-07-31T10:03:51.586Z,47.18
2018-07-31T10:06:25.569Z,47.17
2018-07-31T10:08:59.529Z,47.07
2018-07-31T10:11:31.809Z,47.32
2018-07-31T10:14:04.765Z,47.23
2018-07-31T10:16:39.317Z,47.42
2018-07-31T10:19:23.064Z,47.63
2018-07-31T10:21:58.141Z,47.61
2018-07-31T10:24:37.104Z,47.65
2018-07-31T10:27:15.864Z,47.90
2018-07-31T10:29:50.465Z,48.29
2018-07-31T10:32:28.388Z,48.57
2018-07-31T10:35:01.697Z,48.83
2018-07-31T10:37:35.482Z,48.90
2018-07-31T10:40:09.243Z,49.01
2018-07-31T10:42:42.477Z,49.16
2018-07-31T10:45:17.316Z,48.95
2018-07-31T10:47:52.672Z,48.72
2018-07-31T10:50:24.289Z,48.86
2018-07-31T10:52:58.256Z,49.03
2018-07-31T10:55:33.117Z,48.51
2018-07-31T10:58:06.317Z,48.57
2018-07-31T11:00:47.592Z,48.15
2018-07-31T11:03:22.903Z,48.24
2018-07-31T11:06:11.754Z,48.71
2018-07-31T11:08:47.586Z,48.97
2018-07-31T11:11:21.678Z,49.09
2018-07-31T11:13:54.421Z,49.04
2018-07-31T11:16:36.424Z,48.99
2018-07-31T11:19:08.141Z,49.27
2018-07-31T11:21:39.735Z,48.58
2018-07-31T11:24:13.343Z,48.95
2018-07-31T11:26:45.033Z,48.64
2018-07-31T11:29:17.124Z,48.73
2018-07-31T11:31:50.814Z,49.18
2018-07-31T11:34:23.513Z,49.03
2018-07-31T11:36:58.032Z,47.86
2018-07-31T11:39:32.910Z,47.71
2018-07-31T11:42:05.457Z,47.76
2018-07-31T11:44:38.574Z,48.00
2018-07-31T11:47:11.660Z,48.21
2018-07-31T11:49:44.356Z,48.54
2018-07-31T11:52:18.600Z,49.09
2018-07-31T11:54:53.381Z,49.42
2018-07-31T11:57:31.750Z,49.36
2018-07-31T12:00:05.571Z,48.24
2018-07-31T12:02:40.139Z,48.17
2018-07-31T12:05:12.438Z,48.03
2018-07-31T12:07:45.048Z,47.33
2018-07-31T12:10:18.629Z,46.96
2018-07-31T12:12:50.301Z,47.12
2018-07-31T12:15:24.789Z,47.26
2018-07-31T12:18:01.438Z,47.41
2018-07-31T12:20:34.479Z,47.51
2018-07-31T12:23:09.108Z,47.17
2018-07-31T12:25:42.157Z,46.48
2018-07-31T12:28:14.395Z,45.69
2018-07-31T12:30:48.094Z,45.58
2018-07-31T12:33:19.759Z,45.89
2018-07-31T12:35:52.498Z,46.66
2018-07-31T12:38:26.660Z,47.31
2018-07-31T12:40:58.372Z,46.66
2018-07-31T12:43:32.518Z,46.28
2018-07-31T12:46:08.703Z,46.22
2018-07-31T12:48:42.321Z,46.67
2018-07-31T12:51:24.666Z,46.91
2018-07-31T12:53:58.446Z,47.17
2018-07-31T12:56:31.053Z,47.00
2018-07-31T12:59:05.842Z,47.29
2018-07-31T13:01:39.486Z,47.38
2018-07-31T13:04:12.093Z,47.59
2018-07-31T13:06:46.741Z,47.19
2018-07-31T13:09:20.803Z,47.14
2018-07-31T13:11:53.703Z,47.58
2018-07-31T13:14:25.882Z,47.95
2018-07-31T13:17:06.525Z,47.86
2018-07-31T13:19:42.103Z,47.81
2018-07-31T13:22:19.684Z,47.87
2018-07-31T13:24:54.522Z,48.38
2018-07-31T13:27:57.287Z,48.78
2018-07-31T13:30:36.364Z,48.58
2018-07-31T13:33:10.537Z,48.49
2018-07-31T13:35:47.039Z,48.29
2018-07-31T13:38:23.492Z,48.22
2018-07-31T13:40:56.895Z,48.28
2018-07-31T13:43:31.470Z,48.58
2018-07-31T13:46:06.987Z,48.75
2018-07-31T13:48:41.324Z,48.96
2018-07-31T13:51:13.058Z,49.48
2018-07-31T13:53:45.784Z,49.54
2018-07-31T13:56:19.538Z,48.87
2018-07-31T13:58:52.768Z,48.15
2018-07-31T14:01:24.962Z,48.30
2018-07-31T14:03:57.628Z,48.42
2018-07-31T14:06:40.241Z,48.48
2018-07-31T14:09:24.692Z,48.74
2018-07-31T14:11:57.954Z,49.04
2018-07-31T14:14:30.568Z,48.54
2018-07-31T14:17:05.782Z,48.22
2018-07-31T14:19:37.960Z,48.41
2018-07-31T14:22:10.821Z,48.47
2018-07-31T14:24:46.378Z,47.83
2018-07-31T14:27:21.372Z,47.63
2018-07-31T14:29:56.297Z,47.92
2018-07-31T14:32:28.744Z,48.40
2018-07-31T14:35:02.040Z,47.95
2018-07-31T14:37:34.804Z,47.87
2018-07-31T14:40:12.157Z,48.06
2018-07-31T14:42:45.492Z,48.45
2018-07-31T14:45:19.819Z,48.27
2018-07-31T14:47:56.822Z,48.26
2018-07-31T14:50:35.834Z,48.46
2018-07-31T14:53:13.831Z,48.52
2018-07-31T14:55:50.032Z,47.72
2018-07-31T14:58:23.630Z,47.24
2018-07-31T15:01:00.613Z,47.89
2018-07-31T15:03:35.905Z,47.83
2018-07-31T15:06:09.356Z,48.28
2018-07-31T15:08:41.115Z,48.57
2018-07-31T15:11:15.051Z,48.41
2018-07-31T15:13:48.653Z,48.61
2018-07-31T15:16:21.591Z,49.20
2018-07-31T15:18:54.268Z,49.91
2018-07-31T15:21:28.792Z,49.50
2018-07-31T15:24:03.642Z,48.86
2018-07-31T15:26:36.135Z,48.72
2018-07-31T15:29:13.021Z,48.80
2018-07-31T15:31:48.166Z,49.10
2018-07-31T15:34:30.064Z,49.31
2018-07-31T15:37:03.633Z,49.10
2018-07-31T15:39:37.132Z,48.98
2018-07-31T15:42:11.189Z,49.20
2018-07-31T15:44:47.251Z,48.59
2018-07-31T15:47:22.469Z,48.08
2018-07-31T15:49:55.350Z,47.37
2018-07-31T15:52:32.113Z,47.46
2018-07-31T15:55:07.801Z,47.78
2018-07-31T15:57:46.036Z,47.47
2018-07-31T16:00:19.743Z,46.92
2018-07-31T16:02:53.210Z,46.26
2018-07-31T16:05:27.322Z,46.52
2018-07-31T16:08:01.276Z,46.91
2018-07-31T16:10:35.706Z,46.67
2018-07-31T16:13:09.094Z,46.57
2018-07-31T16:15:43.139Z,46.73
2018-07-31T16:18:20.382Z,47.45
2018-07-31T16:20:55.045Z,47.48
2018-07-31T16:23:29.439Z,47.62
2018-07-31T16:26:03.998Z,47.42
2018-07-31T16:28:37.614Z,47.01
2018-07-31T16:31:13.850Z,46.78
2018-07-31T16:33:50.830Z,46.74
2018-07-31T16:36:25.360Z,46.73
2018-07-31T16:39:07.994Z,46.56
2018-07-31T16:41:45.484Z,46.38
2018-07-31T16:44:22.125Z,46.29
2018-07-31T16:47:01.889Z,46.35
2018-07-31T16:49:37.475Z,46.39
2018-07-31T16:52:12.203Z,46.02
2018-07-31T16:54:45.037Z,45.53
2018-07-31T16:57:20.239Z,45.57
2018-07-31T16:59:59.022Z,45.90
2018-07-31T17:02:45.270Z,45.90
2018-07-31T17:05:31.556Z,45.79
2018-07-31T17:08:06.534Z,45.89
2018-07-31T17:10:44.109Z,46.06
2018-07-31T17:13:18.150Z,46.28
2018-07-31T17:15:51.987Z,46.51
2018-07-31T17:18:26.687Z,46.65
2018-07-31T17:21:03.169Z,46.38
2018-07-31T17:23:39.241Z,46.51
2018-07-31T17:26:19.345Z,46.57
2018-07-31T17:28:55.158Z,46.23
2018-07-31T17:31:28.010Z,45.71
2018-07-31T17:34:01.846Z,45.16
2018-07-31T17:36:41.449Z,44.63
2018-07-31T17:39:15.364Z,44.47
2018-07-31T17:41:49.378Z,44.07
2018-07-31T17:44:24.356Z,43.94
2018-07-31T17:46:59.997Z,44.13
2018-07-31T17:52:15.840Z,44.62
2018-07-31T17:54:50.083Z,44.71
2018-07-31T17:57:23.226Z,44.52
2018-07-31T17:59:58.630Z,43.98
2018-07-31T18:02:31.857Z,43.88
2018-07-31T18:05:04.537Z,43.78
2018-07-31T18:07:37.452Z,43.21
2018-07-31T18:10:11.349Z,43.13
2018-07-31T18:12:49.955Z,42.99
2018-07-31T18:15:36.235Z,42.92
2018-07-31T18:18:14.812Z,42.81
2018-07-31T18:20:50.286Z,42.71
2018-07-31T18:23:30.472Z,42.59
2018-07-31T18:26:05.265Z,42.66
2018-07-31T18:28:50.289Z,42.41
2018-07-31T18:31:27.688Z,42.25
2018-07-31T18:34:03.365Z,42.18
2018-07-31T18:36:42.740Z,42.07
2018-07-31T18:39:18.564Z,41.91
2018-07-31T18:41:56.299Z,42.03
2018-07-31T18:44:35.453Z,41.81
2018-07-31T18:47:10.689Z,41.38
2018-07-31T18:49:44.555Z,41.23
2018-07-31T18:54:59.775Z,40.97
2018-07-31T18:57:39.782Z,40.89
2018-07-31T19:00:19.786Z,40.74
2018-07-31T19:02:58.452Z,40.65
2018-07-31T19:05:33.231Z,40.49
2018-07-31T19:08:12.265Z,40.43
2018-07-31T19:10:50.406Z,40.34
2018-07-31T19:13:29.791Z,40.19
2018-07-31T19:16:05.666Z,40.16
2018-07-31T19:18:39.449Z,40.12
2018-07-31T19:21:18.447Z,40.09
2018-07-31T19:23:54.062Z,40.00
2018-07-31T19:26:30.560Z,39.91
2018-07-31T19:29:08.907Z,39.82
2018-07-31T19:31:43.272Z,39.69
2018-07-31T19:34:20.910Z,39.77
2018-07-31T19:36:57.043Z,39.58
2018-07-31T19:39:30.890Z,39.36
2018-07-31T19:42:07.287Z,39.31
2018-07-31T19:44:44.085Z,39.23
2018-07-31T19:47:20.224Z,39.08
2018-07-31T19:49:59.511Z,38.99
2018-07-31T19:52:42.529Z,39.00
2018-07-31T19:55:23.576Z,38.94
2018-07-31T19:57:59.124Z,38.88
2018-07-31T20:00:36.571Z,38.72
2018-07-31T20:03:12.476Z,38.67
2018-07-31T20:06:08.560Z,38.52
2018-07-31T20:08:44.698Z,38.53
2018-07-31T20:11:23.276Z,38.42
2018-07-31T20:13:57.373Z,38.09
2018-07-31T20:16:34.159Z,38.00
2018-07-31T20:19:09.384Z,37.85
2018-07-31T20:21:50.047Z,37.77
2018-07-31T20:24:30.537Z,37.70
2018-07-31T20:27:08.643Z,37.70
2018-07-31T20:29:49.316Z,37.59
2018-07-31T20:32:27.648Z,37.74
2018-07-31T20:35:08.826Z,37.84
2018-07-31T20:37:45.673Z,37.51
2018-07-31T20:40:19.909Z,37.04
2018-07-31T20:42:56.121Z,36.93
2018-07-31T20:45:32.046Z,36.93
2018-07-31T20:48:11.399Z,37.00
2018-07-31T20:50:45.941Z,37.02
2018-07-31T20:53:20.640Z,37.02
2018-07-31T20:55:58.643Z,37.11
2018-07-31T20:58:33.352Z,36.92
2018-07-31T21:01:07.611Z,36.94
2018-07-31T21:03:42.710Z,36.96
2018-07-31T21:06:23.574Z,36.76
2018-07-31T21:08:59.522Z,36.59
2018-07-31T21:11:43.889Z,36.53
2018-07-31T21:14:21.757Z,36.77
2018-07-31T21:16:59.730Z,36.50
2018-07-31T21:19:36.104Z,36.43
2018-07-31T21:22:24.245Z,36.45
2018-07-31T21:25:03.558Z,36.37
2018-07-31T21:27:42.426Z,36.36
2018-07-31T21:30:21.524Z,36.03
2018-07-31T21:32:58.313Z,35.95
2018-07-31T21:35:38.619Z,36.23
2018-07-31T21:38:14.104Z,36.07
2018-07-31T21:40:50.434Z,35.69
2018-07-31T21:43:25.346Z,35.79
2018-07-31T21:45:59.639Z,35.85
2018-07-31T21:48:38.452Z,35.89
2018-07-31T21:51:15.619Z,35.79
2018-07-31T21:53:50.593Z,36.01
2018-07-31T21:56:30.822Z,36.00
2018-07-31T21:59:06.789Z,35.88
2018-07-31T22:05:04.434Z,35.96
2018-07-31T22:07:42.613Z,35.81
2018-07-31T22:10:17.694Z,35.68
2018-07-31T22:12:52.538Z,35.69
2018-07-31T22:15:27.753Z,35.78
2018-07-31T22:18:03.269Z,35.86
2018-07-31T22:20:37.985Z,35.85
2018-07-31T22:23:12.806Z,35.73
2018-07-31T22:25:47.068Z,35.68
2018-07-31T22:28:23.073Z,35.72
2018-07-31T22:30:56.678Z,35.62
2018-07-31T22:33:32.966Z,35.48
2018-07-31T22:36:09.366Z,35.49
2018-07-31T22:38:44.810Z,35.56
2018-07-31T22:41:19.730Z,35.55
2018-07-31T22:43:53.064Z,35.42
2018-07-31T22:46:26.949Z,35.34
2018-07-31T22:49:00.561Z,35.36
2018-07-31T22:51:35.533Z,35.29
2018-07-31T22:54:09.345Z,35.34
2018-07-31T22:56:45.809Z,35.22
2018-07-31T22:59:19.308Z,35.22
2018-07-31T23:01:52.834Z,35.18
2018-07-31T23:04:26.068Z,35.25
2018-07-31T23:06:59.950Z,35.28
2018-07-31T23:09:35.197Z,35.11
2018-07-31T23:12:09.179Z,35.13
2018-07-31T23:14:43.424Z,34.96
2018-07-31T23:17:18.503Z,34.94
2018-07-31T23:19:52.195Z,34.96
2018-07-31T23:22:42.283Z,35.01
2018-07-31T23:25:16.595Z,35.03
2018-07-31T23:27:50.630Z,34.98
2018-07-31T23:30:24.451Z,34.84
2018-07-31T23:32:58.243Z,34.88
2018-07-31T23:35:33.479Z,34.85
2018-07-31T23:38:09.131Z,34.87
2018-07-31T23:40:42.538Z,34.84
2018-07-31T23:43:18.341Z,34.70
2018-07-31T23:45:52.189Z,34.76
2018-07-31T23:48:36.295Z,34.80
2018-07-31T23:51:09.642Z,34.75
2018-07-31T23:53:43.791Z,34.71
2018-07-31T23:56:17.657Z,34.57
2018-07-31T23:58:51.925Z,34.57
